sensor_id;sensor_type;location;lat;lon;timestamp;P1;durP1;ratioP1;P2;durP2;ratioP2
4577;SDS011;2301;47.354;8.528;2023-03-19T00:02:06;9.90;;;4.70;;
4577;SDS011;2301;47.354;8.528;2023-03-19T00:04:34;11.57;;;4.63;;
4577;SDS011;2301;47.354;8.528;2023-03-19T00:07:01;16.80;;;5.67;;
4577;SDS011;2301;47.354;8.528;2023-03-19T00:09:28;10.23;;;5.68;;
4577;SDS011;2301;47.354;8.528;2023-03-19T00:11:55;11.70;;;5.27;;
4577;SDS011;2301;47.354;8.528;2023-03-19T00:14:22;13.33;;;4.73;;
4577;SDS011;2301;47.354;8.528;2023-03-19T00:16:49;9.70;;;5.30;;
4577;SDS011;2301;47.354;8.528;2023-03-19T00:19:16;10.53;;;5.47;;
4577;SDS011;2301;47.354;8.528;2023-03-19T00:21:45;16.07;;;6.20;;
4577;SDS011;2301;47.354;8.528;2023-03-19T00:24:12;9.37;;;5.70;;
4577;SDS011;2301;47.354;8.528;2023-03-19T00:26:42;12.43;;;6.47;;
4577;SDS011;2301;47.354;8.528;2023-03-19T00:29:09;11.57;;;5.93;;
4577;SDS011;2301;47.354;8.528;2023-03-19T00:31:37;14.17;;;6.83;;
4577;SDS011;2301;47.354;8.528;2023-03-19T00:34:05;10.37;;;5.60;;
4577;SDS011;2301;47.354;8.528;2023-03-19T00:36:33;9.23;;;5.40;;
4577;SDS011;2301;47.354;8.528;2023-03-19T00:39:02;9.73;;;5.30;;
4577;SDS011;2301;47.354;8.528;2023-03-19T00:41:30;12.10;;;5.97;;
4577;SDS011;2301;47.354;8.528;2023-03-19T00:43:58;10.68;;;5.60;;
4577;SDS011;2301;47.354;8.528;2023-03-19T00:46:25;11.20;;;5.60;;
4577;SDS011;2301;47.354;8.528;2023-03-19T00:48:52;10.37;;;5.80;;
4577;SDS011;2301;47.354;8.528;2023-03-19T00:51:20;12.67;;;6.80;;
4577;SDS011;2301;47.354;8.528;2023-03-19T00:53:48;11.97;;;5.90;;
4577;SDS011;2301;47.354;8.528;2023-03-19T00:56:18;13.30;;;5.87;;
4577;SDS011;2301;47.354;8.528;2023-03-19T00:58:45;12.23;;;6.33;;
4577;SDS011;2301;47.354;8.528;2023-03-19T01:01:13;14.63;;;7.20;;
4577;SDS011;2301;47.354;8.528;2023-03-19T01:03:41;12.90;;;6.70;;
4577;SDS011;2301;47.354;8.528;2023-03-19T01:06:09;10.97;;;5.80;;
4577;SDS011;2301;47.354;8.528;2023-03-19T01:08:36;9.70;;;5.20;;
4577;SDS011;2301;47.354;8.528;2023-03-19T01:11:03;12.90;;;5.73;;
4577;SDS011;2301;47.354;8.528;2023-03-19T01:13:33;9.47;;;5.47;;
4577;SDS011;2301;47.354;8.528;2023-03-19T01:16:00;14.17;;;5.93;;
4577;SDS011;2301;47.354;8.528;2023-03-19T01:18:27;13.37;;;5.90;;
4577;SDS011;2301;47.354;8.528;2023-03-19T01:20:54;13.30;;;5.70;;
4577;SDS011;2301;47.354;8.528;2023-03-19T01:23:22;11.07;;;5.10;;
4577;SDS011;2301;47.354;8.528;2023-03-19T01:25:49;12.57;;;6.67;;
4577;SDS011;2301;47.354;8.528;2023-03-19T01:28:16;16.83;;;6.90;;
4577;SDS011;2301;47.354;8.528;2023-03-19T01:30:45;13.75;;;6.47;;
4577;SDS011;2301;47.354;8.528;2023-03-19T01:33:12;13.40;;;6.80;;
4577;SDS011;2301;47.354;8.528;2023-03-19T01:35:39;11.37;;;6.40;;
4577;SDS011;2301;47.354;8.528;2023-03-19T01:38:08;13.50;;;6.90;;
4577;SDS011;2301;47.354;8.528;2023-03-19T01:40:35;17.33;;;7.60;;
4577;SDS011;2301;47.354;8.528;2023-03-19T01:43:12;16.52;;;6.70;;
4577;SDS011;2301;47.354;8.528;2023-03-19T01:45:45;12.23;;;6.63;;
4577;SDS011;2301;47.354;8.528;2023-03-19T01:48:20;13.90;;;6.80;;
4577;SDS011;2301;47.354;8.528;2023-03-19T01:50:54;13.13;;;6.65;;
4577;SDS011;2301;47.354;8.528;2023-03-19T01:53:23;13.50;;;6.70;;
4577;SDS011;2301;47.354;8.528;2023-03-19T01:55:54;12.87;;;7.10;;
4577;SDS011;2301;47.354;8.528;2023-03-19T01:58:25;14.20;;;6.30;;
4577;SDS011;2301;47.354;8.528;2023-03-19T02:00:54;13.00;;;6.53;;
4577;SDS011;2301;47.354;8.528;2023-03-19T02:03:22;16.50;;;7.83;;
4577;SDS011;2301;47.354;8.528;2023-03-19T02:05:49;12.15;;;6.25;;
4577;SDS011;2301;47.354;8.528;2023-03-19T02:08:18;11.00;;;5.50;;
4577;SDS011;2301;47.354;8.528;2023-03-19T02:10:48;14.17;;;6.77;;
4577;SDS011;2301;47.354;8.528;2023-03-19T02:13:16;13.13;;;6.70;;
4577;SDS011;2301;47.354;8.528;2023-03-19T02:15:43;18.05;;;6.32;;
4577;SDS011;2301;47.354;8.528;2023-03-19T02:18:12;14.97;;;7.10;;
4577;SDS011;2301;47.354;8.528;2023-03-19T02:20:42;12.23;;;6.17;;
4577;SDS011;2301;47.354;8.528;2023-03-19T02:23:16;12.67;;;6.20;;
4577;SDS011;2301;47.354;8.528;2023-03-19T02:25:56;12.98;;;6.75;;
4577;SDS011;2301;47.354;8.528;2023-03-19T02:28:27;14.87;;;6.20;;
4577;SDS011;2301;47.354;8.528;2023-03-19T02:30:57;14.60;;;6.73;;
4577;SDS011;2301;47.354;8.528;2023-03-19T02:33:24;16.30;;;6.20;;
4577;SDS011;2301;47.354;8.528;2023-03-19T02:35:51;13.03;;;6.10;;
4577;SDS011;2301;47.354;8.528;2023-03-19T02:38:19;14.70;;;7.53;;
4577;SDS011;2301;47.354;8.528;2023-03-19T02:40:48;10.67;;;5.90;;
4577;SDS011;2301;47.354;8.528;2023-03-19T02:43:20;11.90;;;5.73;;
4577;SDS011;2301;47.354;8.528;2023-03-19T02:45:48;16.83;;;6.17;;
4577;SDS011;2301;47.354;8.528;2023-03-19T02:48:15;12.30;;;5.67;;
4577;SDS011;2301;47.354;8.528;2023-03-19T02:50:42;9.83;;;5.50;;
4577;SDS011;2301;47.354;8.528;2023-03-19T02:53:09;15.45;;;6.60;;
4577;SDS011;2301;47.354;8.528;2023-03-19T02:55:36;9.60;;;5.20;;
4577;SDS011;2301;47.354;8.528;2023-03-19T02:58:03;12.60;;;6.05;;
4577;SDS011;2301;47.354;8.528;2023-03-19T03:00:32;10.10;;;6.17;;
4577;SDS011;2301;47.354;8.528;2023-03-19T03:02:59;11.77;;;6.18;;
4577;SDS011;2301;47.354;8.528;2023-03-19T03:05:27;11.90;;;5.43;;
4577;SDS011;2301;47.354;8.528;2023-03-19T03:07:54;9.90;;;4.47;;
4577;SDS011;2301;47.354;8.528;2023-03-19T03:10:22;7.27;;;4.30;;
4577;SDS011;2301;47.354;8.528;2023-03-19T03:12:49;8.95;;;4.45;;
4577;SDS011;2301;47.354;8.528;2023-03-19T03:15:17;11.57;;;4.30;;
4577;SDS011;2301;47.354;8.528;2023-03-19T03:17:47;8.10;;;4.07;;
4577;SDS011;2301;47.354;8.528;2023-03-19T03:20:14;11.07;;;4.88;;
4577;SDS011;2301;47.354;8.528;2023-03-19T03:22:43;7.87;;;4.07;;
4577;SDS011;2301;47.354;8.528;2023-03-19T03:25:12;11.60;;;3.67;;
4577;SDS011;2301;47.354;8.528;2023-03-19T03:27:39;9.50;;;4.80;;
4577;SDS011;2301;47.354;8.528;2023-03-19T03:30:07;10.90;;;4.70;;
4577;SDS011;2301;47.354;8.528;2023-03-19T03:32:35;8.97;;;3.60;;
4577;SDS011;2301;47.354;8.528;2023-03-19T03:35:05;11.93;;;5.00;;
4577;SDS011;2301;47.354;8.528;2023-03-19T03:37:33;8.35;;;4.43;;
4577;SDS011;2301;47.354;8.528;2023-03-19T03:40:01;8.43;;;4.50;;
4577;SDS011;2301;47.354;8.528;2023-03-19T03:42:32;6.70;;;3.87;;
4577;SDS011;2301;47.354;8.528;2023-03-19T03:45:00;8.50;;;4.60;;
4577;SDS011;2301;47.354;8.528;2023-03-19T03:47:27;10.13;;;4.17;;
4577;SDS011;2301;47.354;8.528;2023-03-19T03:49:54;7.33;;;4.10;;
4577;SDS011;2301;47.354;8.528;2023-03-19T03:52:22;8.93;;;3.83;;
4577;SDS011;2301;47.354;8.528;2023-03-19T03:54:49;15.07;;;4.32;;
4577;SDS011;2301;47.354;8.528;2023-03-19T03:57:16;8.00;;;3.93;;
4577;SDS011;2301;47.354;8.528;2023-03-19T03:59:43;11.03;;;4.37;;
4577;SDS011;2301;47.354;8.528;2023-03-19T04:02:11;10.43;;;5.07;;
4577;SDS011;2301;47.354;8.528;2023-03-19T04:04:41;9.97;;;4.20;;
4577;SDS011;2301;47.354;8.528;2023-03-19T04:07:11;10.23;;;5.07;;
4577;SDS011;2301;47.354;8.528;2023-03-19T04:09:39;8.65;;;4.32;;
4577;SDS011;2301;47.354;8.528;2023-03-19T04:12:07;9.77;;;4.28;;
4577;SDS011;2301;47.354;8.528;2023-03-19T04:14:38;9.07;;;4.28;;
4577;SDS011;2301;47.354;8.528;2023-03-19T04:17:07;8.17;;;4.13;;
4577;SDS011;2301;47.354;8.528;2023-03-19T04:19:35;8.90;;;4.40;;
4577;SDS011;2301;47.354;8.528;2023-03-19T04:22:02;9.57;;;4.20;;
4577;SDS011;2301;47.354;8.528;2023-03-19T04:24:29;12.02;;;4.35;;
4577;SDS011;2301;47.354;8.528;2023-03-19T04:26:58;9.37;;;4.43;;
4577;SDS011;2301;47.354;8.528;2023-03-19T04:29:25;8.82;;;3.80;;
4577;SDS011;2301;47.354;8.528;2023-03-19T04:31:52;9.20;;;4.53;;
4577;SDS011;2301;47.354;8.528;2023-03-19T04:34:19;8.80;;;4.88;;
4577;SDS011;2301;47.354;8.528;2023-03-19T04:36:46;8.60;;;3.75;;
4577;SDS011;2301;47.354;8.528;2023-03-19T04:39:14;11.10;;;4.87;;
4577;SDS011;2301;47.354;8.528;2023-03-19T04:41:40;7.90;;;4.10;;
4577;SDS011;2301;47.354;8.528;2023-03-19T04:44:09;12.80;;;4.35;;
4577;SDS011;2301;47.354;8.528;2023-03-19T04:46:36;9.97;;;4.70;;
4577;SDS011;2301;47.354;8.528;2023-03-19T04:49:03;9.53;;;4.20;;
4577;SDS011;2301;47.354;8.528;2023-03-19T04:51:30;9.33;;;4.33;;
4577;SDS011;2301;47.354;8.528;2023-03-19T04:53:57;10.23;;;4.30;;
4577;SDS011;2301;47.354;8.528;2023-03-19T04:56:24;6.40;;;3.47;;
4577;SDS011;2301;47.354;8.528;2023-03-19T04:58:51;9.93;;;3.95;;
4577;SDS011;2301;47.354;8.528;2023-03-19T05:01:20;9.23;;;4.15;;
4577;SDS011;2301;47.354;8.528;2023-03-19T05:03:47;8.43;;;4.22;;
4577;SDS011;2301;47.354;8.528;2023-03-19T05:06:14;9.68;;;3.97;;
4577;SDS011;2301;47.354;8.528;2023-03-19T05:08:44;10.65;;;3.80;;
4577;SDS011;2301;47.354;8.528;2023-03-19T05:11:11;9.20;;;3.95;;
4577;SDS011;2301;47.354;8.528;2023-03-19T05:13:38;9.43;;;3.90;;
4577;SDS011;2301;47.354;8.528;2023-03-19T05:16:05;7.97;;;4.05;;
4577;SDS011;2301;47.354;8.528;2023-03-19T05:18:34;7.80;;;3.50;;
4577;SDS011;2301;47.354;8.528;2023-03-19T05:21:01;9.63;;;4.28;;
4577;SDS011;2301;47.354;8.528;2023-03-19T05:23:29;7.65;;;4.03;;
4577;SDS011;2301;47.354;8.528;2023-03-19T05:25:57;8.60;;;3.70;;
4577;SDS011;2301;47.354;8.528;2023-03-19T05:28:26;7.97;;;3.70;;
4577;SDS011;2301;47.354;8.528;2023-03-19T05:30:53;9.57;;;4.10;;
4577;SDS011;2301;47.354;8.528;2023-03-19T05:33:21;13.93;;;3.50;;
4577;SDS011;2301;47.354;8.528;2023-03-19T05:35:50;9.57;;;3.70;;
4577;SDS011;2301;47.354;8.528;2023-03-19T05:38:17;9.82;;;4.13;;
4577;SDS011;2301;47.354;8.528;2023-03-19T05:40:44;7.65;;;3.97;;
4577;SDS011;2301;47.354;8.528;2023-03-19T05:43:11;7.80;;;3.55;;
4577;SDS011;2301;47.354;8.528;2023-03-19T05:45:38;6.60;;;3.53;;
4577;SDS011;2301;47.354;8.528;2023-03-19T05:48:06;8.00;;;3.47;;
4577;SDS011;2301;47.354;8.528;2023-03-19T05:50:33;9.55;;;3.58;;
4577;SDS011;2301;47.354;8.528;2023-03-19T05:53:02;7.50;;;3.65;;
4577;SDS011;2301;47.354;8.528;2023-03-19T05:55:29;7.20;;;3.83;;
4577;SDS011;2301;47.354;8.528;2023-03-19T05:57:56;13.70;;;4.45;;
4577;SDS011;2301;47.354;8.528;2023-03-19T06:00:23;4.50;;;2.60;;
4577;SDS011;2301;47.354;8.528;2023-03-19T06:02:51;7.32;;;3.50;;
4577;SDS011;2301;47.354;8.528;2023-03-19T06:05:19;6.40;;;2.92;;
4577;SDS011;2301;47.354;8.528;2023-03-19T06:07:46;8.52;;;3.70;;
4577;SDS011;2301;47.354;8.528;2023-03-19T06:10:15;10.70;;;3.50;;
4577;SDS011;2301;47.354;8.528;2023-03-19T06:12:43;7.00;;;3.25;;
4577;SDS011;2301;47.354;8.528;2023-03-19T06:15:13;5.60;;;3.17;;
4577;SDS011;2301;47.354;8.528;2023-03-19T06:17:42;9.05;;;3.75;;
4577;SDS011;2301;47.354;8.528;2023-03-19T06:20:10;5.75;;;2.90;;
4577;SDS011;2301;47.354;8.528;2023-03-19T06:22:37;8.48;;;3.40;;
4577;SDS011;2301;47.354;8.528;2023-03-19T06:25:05;8.53;;;4.20;;
4577;SDS011;2301;47.354;8.528;2023-03-19T06:27:34;10.82;;;3.72;;
4577;SDS011;2301;47.354;8.528;2023-03-19T06:30:01;8.55;;;4.03;;
4577;SDS011;2301;47.354;8.528;2023-03-19T06:32:28;5.35;;;2.97;;
4577;SDS011;2301;47.354;8.528;2023-03-19T06:34:55;6.45;;;3.22;;
4577;SDS011;2301;47.354;8.528;2023-03-19T06:37:21;7.53;;;3.03;;
4577;SDS011;2301;47.354;8.528;2023-03-19T06:39:49;5.90;;;2.90;;
4577;SDS011;2301;47.354;8.528;2023-03-19T06:42:18;8.23;;;3.22;;
4577;SDS011;2301;47.354;8.528;2023-03-19T06:44:46;6.82;;;3.50;;
4577;SDS011;2301;47.354;8.528;2023-03-19T06:47:14;5.82;;;3.30;;
4577;SDS011;2301;47.354;8.528;2023-03-19T06:49:40;6.43;;;3.70;;
4577;SDS011;2301;47.354;8.528;2023-03-19T06:52:07;8.63;;;2.92;;
4577;SDS011;2301;47.354;8.528;2023-03-19T06:54:34;6.63;;;3.80;;
4577;SDS011;2301;47.354;8.528;2023-03-19T06:57:01;5.43;;;3.13;;
4577;SDS011;2301;47.354;8.528;2023-03-19T06:59:28;6.17;;;2.90;;
4577;SDS011;2301;47.354;8.528;2023-03-19T07:01:57;6.10;;;3.22;;
4577;SDS011;2301;47.354;8.528;2023-03-19T07:04:24;5.40;;;2.60;;
4577;SDS011;2301;47.354;8.528;2023-03-19T07:06:51;7.35;;;3.00;;
4577;SDS011;2301;47.354;8.528;2023-03-19T07:09:19;5.40;;;3.00;;
4577;SDS011;2301;47.354;8.528;2023-03-19T07:11:49;5.97;;;3.00;;
4577;SDS011;2301;47.354;8.528;2023-03-19T07:14:19;6.00;;;2.80;;
4577;SDS011;2301;47.354;8.528;2023-03-19T07:16:49;3.80;;;2.90;;
4577;SDS011;2301;47.354;8.528;2023-03-19T07:19:21;6.65;;;2.72;;
4577;SDS011;2301;47.354;8.528;2023-03-19T07:21:48;8.57;;;3.38;;
4577;SDS011;2301;47.354;8.528;2023-03-19T07:24:16;7.10;;;3.35;;
4577;SDS011;2301;47.354;8.528;2023-03-19T07:26:43;5.90;;;3.33;;
4577;SDS011;2301;47.354;8.528;2023-03-19T07:29:10;8.30;;;3.40;;
4577;SDS011;2301;47.354;8.528;2023-03-19T07:31:37;9.30;;;3.77;;
4577;SDS011;2301;47.354;8.528;2023-03-19T07:34:04;4.25;;;2.83;;
4577;SDS011;2301;47.354;8.528;2023-03-19T07:36:33;5.47;;;3.28;;
4577;SDS011;2301;47.354;8.528;2023-03-19T07:39:00;7.65;;;3.20;;
4577;SDS011;2301;47.354;8.528;2023-03-19T07:41:28;7.78;;;3.45;;
4577;SDS011;2301;47.354;8.528;2023-03-19T07:43:57;7.18;;;3.33;;
4577;SDS011;2301;47.354;8.528;2023-03-19T07:46:24;6.72;;;3.55;;
4577;SDS011;2301;47.354;8.528;2023-03-19T07:48:52;9.52;;;3.70;;
4577;SDS011;2301;47.354;8.528;2023-03-19T07:51:19;10.65;;;3.10;;
4577;SDS011;2301;47.354;8.528;2023-03-19T07:53:47;4.90;;;2.97;;
4577;SDS011;2301;47.354;8.528;2023-03-19T07:56:14;5.30;;;3.00;;
4577;SDS011;2301;47.354;8.528;2023-03-19T07:58:42;5.43;;;3.00;;
4577;SDS011;2301;47.354;8.528;2023-03-19T08:01:09;7.33;;;3.23;;
4577;SDS011;2301;47.354;8.528;2023-03-19T08:03:36;7.43;;;3.60;;
4577;SDS011;2301;47.354;8.528;2023-03-19T08:06:03;8.20;;;3.50;;
4577;SDS011;2301;47.354;8.528;2023-03-19T08:08:31;5.97;;;3.27;;
4577;SDS011;2301;47.354;8.528;2023-03-19T08:11:00;7.93;;;3.60;;
4577;SDS011;2301;47.354;8.528;2023-03-19T08:13:27;6.07;;;3.43;;
4577;SDS011;2301;47.354;8.528;2023-03-19T08:15:54;7.95;;;4.05;;
4577;SDS011;2301;47.354;8.528;2023-03-19T08:18:21;10.60;;;3.80;;
4577;SDS011;2301;47.354;8.528;2023-03-19T08:20:48;11.40;;;4.00;;
4577;SDS011;2301;47.354;8.528;2023-03-19T08:23:15;8.60;;;4.10;;
4577;SDS011;2301;47.354;8.528;2023-03-19T08:25:42;8.00;;;3.60;;
4577;SDS011;2301;47.354;8.528;2023-03-19T08:28:11;6.07;;;3.90;;
4577;SDS011;2301;47.354;8.528;2023-03-19T08:30:38;16.87;;;4.33;;
4577;SDS011;2301;47.354;8.528;2023-03-19T08:33:05;7.67;;;3.87;;
4577;SDS011;2301;47.354;8.528;2023-03-19T08:35:32;7.67;;;3.73;;
4577;SDS011;2301;47.354;8.528;2023-03-19T08:37:59;8.30;;;3.67;;
4577;SDS011;2301;47.354;8.528;2023-03-19T08:40:27;6.60;;;3.87;;
4577;SDS011;2301;47.354;8.528;2023-03-19T08:42:54;8.87;;;3.77;;
4577;SDS011;2301;47.354;8.528;2023-03-19T08:45:22;11.70;;;4.47;;
4577;SDS011;2301;47.354;8.528;2023-03-19T08:47:50;8.87;;;4.33;;
4577;SDS011;2301;47.354;8.528;2023-03-19T08:50:17;8.70;;;3.50;;
4577;SDS011;2301;47.354;8.528;2023-03-19T08:52:44;7.57;;;3.97;;
4577;SDS011;2301;47.354;8.528;2023-03-19T08:55:11;5.80;;;3.80;;
4577;SDS011;2301;47.354;8.528;2023-03-19T08:57:38;7.03;;;4.07;;
4577;SDS011;2301;47.354;8.528;2023-03-19T09:00:05;7.50;;;4.10;;
4577;SDS011;2301;47.354;8.528;2023-03-19T09:02:34;9.57;;;4.50;;
4577;SDS011;2301;47.354;8.528;2023-03-19T09:05:01;10.10;;;4.67;;
4577;SDS011;2301;47.354;8.528;2023-03-19T09:07:28;8.17;;;3.93;;
4577;SDS011;2301;47.354;8.528;2023-03-19T09:09:55;7.43;;;3.90;;
4577;SDS011;2301;47.354;8.528;2023-03-19T09:12:22;9.63;;;3.70;;
4577;SDS011;2301;47.354;8.528;2023-03-19T09:14:50;8.07;;;4.00;;
4577;SDS011;2301;47.354;8.528;2023-03-19T09:17:17;4.87;;;3.37;;
4577;SDS011;2301;47.354;8.528;2023-03-19T09:19:45;6.97;;;3.80;;
4577;SDS011;2301;47.354;8.528;2023-03-19T09:22:12;6.77;;;2.97;;
4577;SDS011;2301;47.354;8.528;2023-03-19T09:24:39;5.00;;;3.43;;
4577;SDS011;2301;47.354;8.528;2023-03-19T09:27:06;11.83;;;4.00;;
4577;SDS011;2301;47.354;8.528;2023-03-19T09:29:33;5.70;;;2.50;;
4577;SDS011;2301;47.354;8.528;2023-03-19T09:32:00;5.00;;;2.70;;
4577;SDS011;2301;47.354;8.528;2023-03-19T09:34:27;8.57;;;3.03;;
4577;SDS011;2301;47.354;8.528;2023-03-19T09:36:56;5.50;;;2.93;;
4577;SDS011;2301;47.354;8.528;2023-03-19T09:39:23;5.77;;;2.70;;
4577;SDS011;2301;47.354;8.528;2023-03-19T09:41:54;5.00;;;2.93;;
4577;SDS011;2301;47.354;8.528;2023-03-19T09:44:30;6.10;;;2.40;;
4577;SDS011;2301;47.354;8.528;2023-03-19T09:47:02;5.87;;;2.50;;
4577;SDS011;2301;47.354;8.528;2023-03-19T09:49:42;6.23;;;2.80;;
4577;SDS011;2301;47.354;8.528;2023-03-19T09:52:14;4.73;;;2.97;;
4577;SDS011;2301;47.354;8.528;2023-03-19T09:54:50;4.73;;;2.60;;
4577;SDS011;2301;47.354;8.528;2023-03-19T09:57:20;5.27;;;2.70;;
4577;SDS011;2301;47.354;8.528;2023-03-19T09:59:47;5.63;;;2.20;;
4577;SDS011;2301;47.354;8.528;2023-03-19T10:02:23;8.87;;;2.90;;
4577;SDS011;2301;47.354;8.528;2023-03-19T10:05:11;8.30;;;2.70;;
4577;SDS011;2301;47.354;8.528;2023-03-19T10:07:52;8.97;;;2.73;;
4577;SDS011;2301;47.354;8.528;2023-03-19T10:10:50;9.30;;;2.90;;
4577;SDS011;2301;47.354;8.528;2023-03-19T10:13:31;6.40;;;2.53;;
4577;SDS011;2301;47.354;8.528;2023-03-19T10:16:09;4.80;;;2.53;;
4577;SDS011;2301;47.354;8.528;2023-03-19T10:18:41;5.90;;;2.80;;
4577;SDS011;2301;47.354;8.528;2023-03-19T10:21:13;4.63;;;2.40;;
4577;SDS011;2301;47.354;8.528;2023-03-19T10:23:51;4.50;;;2.70;;
4577;SDS011;2301;47.354;8.528;2023-03-19T10:26:21;5.00;;;2.87;;
4577;SDS011;2301;47.354;8.528;2023-03-19T10:28:56;4.20;;;2.43;;
4577;SDS011;2301;47.354;8.528;2023-03-19T10:31:35;4.67;;;2.60;;
4577;SDS011;2301;47.354;8.528;2023-03-19T10:34:13;5.73;;;2.93;;
4577;SDS011;2301;47.354;8.528;2023-03-19T10:37:03;4.83;;;2.63;;
4577;SDS011;2301;47.354;8.528;2023-03-19T10:39:34;7.67;;;2.90;;
4577;SDS011;2301;47.354;8.528;2023-03-19T10:42:06;4.40;;;2.70;;
4577;SDS011;2301;47.354;8.528;2023-03-19T10:44:44;5.60;;;2.60;;
4577;SDS011;2301;47.354;8.528;2023-03-19T10:47:15;5.33;;;2.60;;
4577;SDS011;2301;47.354;8.528;2023-03-19T10:49:44;6.00;;;2.90;;
4577;SDS011;2301;47.354;8.528;2023-03-19T10:52:16;4.37;;;2.80;;
4577;SDS011;2301;47.354;8.528;2023-03-19T10:54:50;4.60;;;2.40;;
4577;SDS011;2301;47.354;8.528;2023-03-19T10:57:23;5.47;;;3.00;;
4577;SDS011;2301;47.354;8.528;2023-03-19T10:59:52;6.23;;;2.60;;
4577;SDS011;2301;47.354;8.528;2023-03-19T11:02:20;5.47;;;2.60;;
4577;SDS011;2301;47.354;8.528;2023-03-19T11:04:53;5.47;;;2.50;;
4577;SDS011;2301;47.354;8.528;2023-03-19T11:07:33;5.50;;;2.87;;
4577;SDS011;2301;47.354;8.528;2023-03-19T11:10:04;7.10;;;3.00;;
4577;SDS011;2301;47.354;8.528;2023-03-19T11:12:37;3.80;;;2.50;;
4577;SDS011;2301;47.354;8.528;2023-03-19T11:15:20;6.83;;;3.00;;
4577;SDS011;2301;47.354;8.528;2023-03-19T11:17:49;5.37;;;2.50;;
4577;SDS011;2301;47.354;8.528;2023-03-19T11:20:26;5.13;;;2.97;;
4577;SDS011;2301;47.354;8.528;2023-03-19T11:22:59;4.20;;;2.60;;
4577;SDS011;2301;47.354;8.528;2023-03-19T11:25:38;6.00;;;3.00;;
4577;SDS011;2301;47.354;8.528;2023-03-19T11:28:07;4.93;;;2.63;;
4577;SDS011;2301;47.354;8.528;2023-03-19T11:30:40;5.80;;;2.70;;
4577;SDS011;2301;47.354;8.528;2023-03-19T11:36:18;6.20;;;3.10;;
4577;SDS011;2301;47.354;8.528;2023-03-19T11:38:57;6.47;;;2.73;;
4577;SDS011;2301;47.354;8.528;2023-03-19T11:41:48;12.23;;;3.27;;
4577;SDS011;2301;47.354;8.528;2023-03-19T11:44:30;7.63;;;2.90;;
4577;SDS011;2301;47.354;8.528;2023-03-19T11:47:04;5.93;;;3.63;;
4577;SDS011;2301;47.354;8.528;2023-03-19T11:49:48;6.37;;;2.80;;
4577;SDS011;2301;47.354;8.528;2023-03-19T11:52:22;4.17;;;2.43;;
4577;SDS011;2301;47.354;8.528;2023-03-19T11:55:00;5.63;;;2.80;;
4577;SDS011;2301;47.354;8.528;2023-03-19T11:57:45;6.37;;;3.00;;
4577;SDS011;2301;47.354;8.528;2023-03-19T12:00:34;5.73;;;2.70;;
4577;SDS011;2301;47.354;8.528;2023-03-19T12:03:20;4.60;;;2.93;;
4577;SDS011;2301;47.354;8.528;2023-03-19T12:06:12;4.77;;;2.77;;
4577;SDS011;2301;47.354;8.528;2023-03-19T12:08:50;5.00;;;2.80;;
4577;SDS011;2301;47.354;8.528;2023-03-19T12:11:23;6.53;;;2.90;;
4577;SDS011;2301;47.354;8.528;2023-03-19T12:14:11;7.77;;;3.00;;
4577;SDS011;2301;47.354;8.528;2023-03-19T12:16:52;4.00;;;2.70;;
4577;SDS011;2301;47.354;8.528;2023-03-19T12:19:44;7.73;;;3.40;;
4577;SDS011;2301;47.354;8.528;2023-03-19T12:22:22;5.30;;;2.70;;
4577;SDS011;2301;47.354;8.528;2023-03-19T12:25:04;4.23;;;2.73;;
4577;SDS011;2301;47.354;8.528;2023-03-19T12:27:47;7.23;;;3.30;;
4577;SDS011;2301;47.354;8.528;2023-03-19T12:30:21;6.07;;;2.80;;
4577;SDS011;2301;47.354;8.528;2023-03-19T12:33:01;5.10;;;3.07;;
4577;SDS011;2301;47.354;8.528;2023-03-19T12:35:40;5.83;;;3.03;;
4577;SDS011;2301;47.354;8.528;2023-03-19T12:38:09;7.50;;;3.33;;
4577;SDS011;2301;47.354;8.528;2023-03-19T12:40:42;5.30;;;3.40;;
4577;SDS011;2301;47.354;8.528;2023-03-19T12:43:16;6.63;;;3.57;;
4577;SDS011;2301;47.354;8.528;2023-03-19T12:45:46;5.27;;;2.87;;
4577;SDS011;2301;47.354;8.528;2023-03-19T12:48:21;5.67;;;2.47;;
4577;SDS011;2301;47.354;8.528;2023-03-19T12:50:55;4.70;;;2.60;;
4577;SDS011;2301;47.354;8.528;2023-03-19T12:53:32;7.37;;;3.13;;
4577;SDS011;2301;47.354;8.528;2023-03-19T12:56:11;8.10;;;3.60;;
4577;SDS011;2301;47.354;8.528;2023-03-19T12:58:45;8.07;;;3.13;;
4577;SDS011;2301;47.354;8.528;2023-03-19T13:01:22;5.87;;;3.27;;
4577;SDS011;2301;47.354;8.528;2023-03-19T13:03:53;7.50;;;3.07;;
4577;SDS011;2301;47.354;8.528;2023-03-19T13:06:24;4.77;;;2.40;;
4577;SDS011;2301;47.354;8.528;2023-03-19T13:08:55;8.13;;;2.97;;
4577;SDS011;2301;47.354;8.528;2023-03-19T13:11:32;7.30;;;2.83;;
4577;SDS011;2301;47.354;8.528;2023-03-19T13:14:05;5.03;;;2.87;;
4577;SDS011;2301;47.354;8.528;2023-03-19T13:16:42;8.10;;;3.40;;
4577;SDS011;2301;47.354;8.528;2023-03-19T13:19:17;5.83;;;3.37;;
4577;SDS011;2301;47.354;8.528;2023-03-19T13:21:50;4.60;;;3.20;;
4577;SDS011;2301;47.354;8.528;2023-03-19T13:24:22;10.23;;;3.80;;
4577;SDS011;2301;47.354;8.528;2023-03-19T13:26:52;5.70;;;2.87;;
4577;SDS011;2301;47.354;8.528;2023-03-19T13:29:21;5.20;;;3.07;;
4577;SDS011;2301;47.354;8.528;2023-03-19T13:31:52;9.00;;;3.43;;
4577;SDS011;2301;47.354;8.528;2023-03-19T13:34:25;6.53;;;3.43;;
4577;SDS011;2301;47.354;8.528;2023-03-19T13:36:58;9.80;;;2.80;;
4577;SDS011;2301;47.354;8.528;2023-03-19T13:39:28;6.93;;;2.93;;
4577;SDS011;2301;47.354;8.528;2023-03-19T13:42:21;7.70;;;3.67;;
4577;SDS011;2301;47.354;8.528;2023-03-19T13:45:01;10.33;;;3.10;;
4577;SDS011;2301;47.354;8.528;2023-03-19T13:47:37;6.17;;;2.90;;
4577;SDS011;2301;47.354;8.528;2023-03-19T13:50:22;11.07;;;3.87;;
4577;SDS011;2301;47.354;8.528;2023-03-19T13:52:51;4.40;;;2.77;;
4577;SDS011;2301;47.354;8.528;2023-03-19T13:55:29;5.60;;;3.40;;
4577;SDS011;2301;47.354;8.528;2023-03-19T13:58:16;14.80;;;4.10;;
4577;SDS011;2301;47.354;8.528;2023-03-19T14:01:03;9.50;;;3.10;;
4577;SDS011;2301;47.354;8.528;2023-03-19T14:03:32;6.30;;;3.43;;
4577;SDS011;2301;47.354;8.528;2023-03-19T14:06:00;4.93;;;3.07;;
4577;SDS011;2301;47.354;8.528;2023-03-19T14:08:31;6.33;;;3.10;;
4577;SDS011;2301;47.354;8.528;2023-03-19T14:11:07;7.37;;;3.43;;
4577;SDS011;2301;47.354;8.528;2023-03-19T14:13:36;5.70;;;3.00;;
4577;SDS011;2301;47.354;8.528;2023-03-19T14:16:06;12.47;;;3.50;;
4577;SDS011;2301;47.354;8.528;2023-03-19T14:18:41;6.27;;;3.23;;
4577;SDS011;2301;47.354;8.528;2023-03-19T14:21:10;7.13;;;3.70;;
4577;SDS011;2301;47.354;8.528;2023-03-19T14:23:40;6.30;;;3.00;;
4577;SDS011;2301;47.354;8.528;2023-03-19T14:26:17;10.60;;;3.20;;
4577;SDS011;2301;47.354;8.528;2023-03-19T14:28:56;5.90;;;3.37;;
4577;SDS011;2301;47.354;8.528;2023-03-19T14:31:31;4.47;;;3.10;;
4577;SDS011;2301;47.354;8.528;2023-03-19T14:34:03;7.33;;;2.87;;
4577;SDS011;2301;47.354;8.528;2023-03-19T14:36:39;5.10;;;2.70;;
4577;SDS011;2301;47.354;8.528;2023-03-19T14:39:11;6.53;;;2.83;;
4577;SDS011;2301;47.354;8.528;2023-03-19T14:41:47;5.93;;;2.93;;
4577;SDS011;2301;47.354;8.528;2023-03-19T14:44:30;4.13;;;2.60;;
4577;SDS011;2301;47.354;8.528;2023-03-19T14:47:24;7.07;;;2.60;;
4577;SDS011;2301;47.354;8.528;2023-03-19T14:53:04;6.73;;;2.73;;
4577;SDS011;2301;47.354;8.528;2023-03-19T14:55:39;6.90;;;3.23;;
4577;SDS011;2301;47.354;8.528;2023-03-19T14:58:08;9.10;;;3.23;;
4577;SDS011;2301;47.354;8.528;2023-03-19T15:00:36;6.00;;;2.53;;
4577;SDS011;2301;47.354;8.528;2023-03-19T15:03:12;3.70;;;2.37;;
4577;SDS011;2301;47.354;8.528;2023-03-19T15:05:49;3.23;;;2.10;;
4577;SDS011;2301;47.354;8.528;2023-03-19T15:08:21;4.83;;;1.87;;
4577;SDS011;2301;47.354;8.528;2023-03-19T15:10:54;3.97;;;1.50;;
4577;SDS011;2301;47.354;8.528;2023-03-19T15:13:34;5.80;;;1.80;;
4577;SDS011;2301;47.354;8.528;2023-03-19T15:16:17;5.77;;;2.10;;
4577;SDS011;2301;47.354;8.528;2023-03-19T15:18:52;3.00;;;2.00;;
4577;SDS011;2301;47.354;8.528;2023-03-19T15:21:21;5.60;;;1.90;;
4577;SDS011;2301;47.354;8.528;2023-03-19T15:23:48;5.20;;;1.80;;
4577;SDS011;2301;47.354;8.528;2023-03-19T15:26:15;6.07;;;1.83;;
4577;SDS011;2301;47.354;8.528;2023-03-19T15:28:55;8.27;;;2.43;;
4577;SDS011;2301;47.354;8.528;2023-03-19T15:31:23;6.70;;;1.93;;
4577;SDS011;2301;47.354;8.528;2023-03-19T15:34:16;5.77;;;2.40;;
4577;SDS011;2301;47.354;8.528;2023-03-19T15:36:45;3.10;;;1.93;;
4577;SDS011;2301;47.354;8.528;2023-03-19T15:39:17;6.40;;;2.60;;
4577;SDS011;2301;47.354;8.528;2023-03-19T15:41:47;6.90;;;2.47;;